sensor_id;sensor_type;location;lat;lon;timestamp;P1;durP1;ratioP1;P2;durP2;ratioP2
17953;SDS011;9102;53.548;9.926;2024-01-06T00:00:08;15.23;;;7.13;;
17953;SDS011;9102;53.548;9.926;2024-01-06T00:02:36;13.13;;;6.97;;
17953;SDS011;9102;53.548;9.926;2024-01-06T00:05:04;14.85;;;7.05;;
17953;SDS011;9102;53.548;9.926;2024-01-06T00:07:31;13.88;;;6.85;;
17953;SDS011;9102;53.548;9.926;2024-01-06T00:09:58;12.07;;;6.43;;
17953;SDS011;9102;53.548;9.926;2024-01-06T00:12:25;14.13;;;7.38;;
17953;SDS011;9102;53.548;9.926;2024-01-06T00:14:52;11.00;;;6.47;;
17953;SDS011;9102;53.548;9.926;2024-01-06T00:17:19;12.32;;;6.00;;
17953;SDS011;9102;53.548;9.926;2024-01-06T00:19:45;16.00;;;7.15;;
17953;SDS011;9102;53.548;9.926;2024-01-06T00:22:17;15.00;;;7.25;;
17953;SDS011;9102;53.548;9.926;2024-01-06T00:24:44;15.95;;;7.20;;
17953;SDS011;9102;53.548;9.926;2024-01-06T00:27:11;13.68;;;6.90;;
17953;SDS011;9102;53.548;9.926;2024-01-06T00:29:38;12.63;;;7.05;;
17953;SDS011;9102;53.548;9.926;2024-01-06T00:32:05;12.35;;;6.55;;
17953;SDS011;9102;53.548;9.926;2024-01-06T00:34:32;13.75;;;6.55;;
17953;SDS011;9102;53.548;9.926;2024-01-06T00:36:59;12.93;;;6.88;;
17953;SDS011;9102;53.548;9.926;2024-01-06T00:39:27;13.00;;;6.88;;
17953;SDS011;9102;53.548;9.926;2024-01-06T00:41:54;13.38;;;7.10;;
17953;SDS011;9102;53.548;9.926;2024-01-06T00:44:21;16.85;;;7.95;;
17953;SDS011;9102;53.548;9.926;2024-01-06T00:46:48;14.88;;;7.63;;
17953;SDS011;9102;53.548;9.926;2024-01-06T00:49:15;12.43;;;7.35;;
17953;SDS011;9102;53.548;9.926;2024-01-06T00:51:42;17.52;;;7.95;;
17953;SDS011;9102;53.548;9.926;2024-01-06T00:54:09;16.33;;;7.78;;
17953;SDS011;9102;53.548;9.926;2024-01-06T00:56:37;13.63;;;7.10;;
17953;SDS011;9102;53.548;9.926;2024-01-06T00:59:04;13.23;;;7.28;;
17953;SDS011;9102;53.548;9.926;2024-01-06T01:01:31;15.63;;;8.20;;
17953;SDS011;9102;53.548;9.926;2024-01-06T01:03:58;14.27;;;7.32;;
17953;SDS011;9102;53.548;9.926;2024-01-06T01:06:25;13.35;;;7.53;;
17953;SDS011;9102;53.548;9.926;2024-01-06T01:08:51;10.32;;;6.75;;
17953;SDS011;9102;53.548;9.926;2024-01-06T01:11:19;11.30;;;6.13;;
17953;SDS011;9102;53.548;9.926;2024-01-06T01:13:47;14.52;;;7.25;;
17953;SDS011;9102;53.548;9.926;2024-01-06T01:16:14;12.00;;;6.88;;
17953;SDS011;9102;53.548;9.926;2024-01-06T01:18:41;16.15;;;7.30;;
17953;SDS011;9102;53.548;9.926;2024-01-06T01:21:08;13.38;;;6.43;;
17953;SDS011;9102;53.548;9.926;2024-01-06T01:23:35;10.93;;;6.30;;
17953;SDS011;9102;53.548;9.926;2024-01-06T01:26:02;15.02;;;6.80;;
17953;SDS011;9102;53.548;9.926;2024-01-06T01:28:29;16.58;;;7.65;;
17953;SDS011;9102;53.548;9.926;2024-01-06T01:30:57;12.85;;;6.93;;
17953;SDS011;9102;53.548;9.926;2024-01-06T01:33:24;15.75;;;7.45;;
17953;SDS011;9102;53.548;9.926;2024-01-06T01:35:51;15.43;;;7.38;;
17953;SDS011;9102;53.548;9.926;2024-01-06T01:38:18;15.40;;;7.20;;
17953;SDS011;9102;53.548;9.926;2024-01-06T01:40:45;13.95;;;6.07;;
17953;SDS011;9102;53.548;9.926;2024-01-06T01:43:17;15.05;;;7.55;;
17953;SDS011;9102;53.548;9.926;2024-01-06T01:45:45;13.48;;;7.32;;
17953;SDS011;9102;53.548;9.926;2024-01-06T01:48:18;14.48;;;7.45;;
17953;SDS011;9102;53.548;9.926;2024-01-06T01:50:46;13.50;;;7.13;;
17953;SDS011;9102;53.548;9.926;2024-01-06T01:53:13;18.30;;;7.57;;
17953;SDS011;9102;53.548;9.926;2024-01-06T01:55:40;12.48;;;6.63;;
17953;SDS011;9102;53.548;9.926;2024-01-06T01:58:08;15.57;;;7.28;;
17953;SDS011;9102;53.548;9.926;2024-01-06T02:00:36;14.20;;;6.95;;
17953;SDS011;9102;53.548;9.926;2024-01-06T02:03:03;12.77;;;5.90;;
17953;SDS011;9102;53.548;9.926;2024-01-06T02:05:32;14.18;;;6.78;;
17953;SDS011;9102;53.548;9.926;2024-01-06T02:07:59;13.95;;;7.35;;
17953;SDS011;9102;53.548;9.926;2024-01-06T02:10:26;14.73;;;7.43;;
17953;SDS011;9102;53.548;9.926;2024-01-06T02:12:54;14.43;;;6.78;;
17953;SDS011;9102;53.548;9.926;2024-01-06T02:15:21;13.55;;;7.43;;
17953;SDS011;9102;53.548;9.926;2024-01-06T02:17:48;14.32;;;6.85;;
17953;SDS011;9102;53.548;9.926;2024-01-06T02:20:15;13.80;;;6.97;;
17953;SDS011;9102;53.548;9.926;2024-01-06T02:22:46;14.93;;;7.55;;
17953;SDS011;9102;53.548;9.926;2024-01-06T02:25:13;17.65;;;8.15;;
17953;SDS011;9102;53.548;9.926;2024-01-06T02:27:39;16.80;;;7.65;;
17953;SDS011;9102;53.548;9.926;2024-01-06T02:30:06;13.38;;;7.18;;
17953;SDS011;9102;53.548;9.926;2024-01-06T02:32:35;13.80;;;7.43;;
17953;SDS011;9102;53.548;9.926;2024-01-06T02:35:02;13.07;;;6.65;;
17953;SDS011;9102;53.548;9.926;2024-01-06T02:37:29;14.35;;;7.15;;
17953;SDS011;9102;53.548;9.926;2024-01-06T02:39:57;16.02;;;7.78;;
17953;SDS011;9102;53.548;9.926;2024-01-06T02:42:24;13.10;;;7.43;;
17953;SDS011;9102;53.548;9.926;2024-01-06T02:44:51;13.40;;;6.65;;
17953;SDS011;9102;53.548;9.926;2024-01-06T02:47:18;12.70;;;7.13;;
17953;SDS011;9102;53.548;9.926;2024-01-06T02:49:44;14.95;;;7.47;;
17953;SDS011;9102;53.548;9.926;2024-01-06T02:52:11;13.45;;;7.20;;
17953;SDS011;9102;53.548;9.926;2024-01-06T02:54:38;15.85;;;7.15;;
17953;SDS011;9102;53.548;9.926;2024-01-06T02:57:06;15.52;;;7.53;;
17953;SDS011;9102;53.548;9.926;2024-01-06T02:59:33;14.50;;;7.25;;
17953;SDS011;9102;53.548;9.926;2024-01-06T03:02:01;15.43;;;7.43;;
17953;SDS011;9102;53.548;9.926;2024-01-06T03:04:28;15.63;;;7.55;;
17953;SDS011;9102;53.548;9.926;2024-01-06T03:06:55;14.07;;;7.82;;
17953;SDS011;9102;53.548;9.926;2024-01-06T03:09:21;13.15;;;6.90;;
17953;SDS011;9102;53.548;9.926;2024-01-06T03:11:48;14.10;;;7.57;;
17953;SDS011;9102;53.548;9.926;2024-01-06T03:14:16;14.32;;;7.72;;
17953;SDS011;9102;53.548;9.926;2024-01-06T03:16:43;13.82;;;7.40;;
17953;SDS011;9102;53.548;9.926;2024-01-06T03:19:10;13.90;;;7.90;;
17953;SDS011;9102;53.548;9.926;2024-01-06T03:21:37;14.80;;;8.15;;
17953;SDS011;9102;53.548;9.926;2024-01-06T03:24:04;14.32;;;7.88;;
17953;SDS011;9102;53.548;9.926;2024-01-06T03:26:31;13.65;;;7.80;;
17953;SDS011;9102;53.548;9.926;2024-01-06T03:28:59;15.23;;;8.32;;
17953;SDS011;9102;53.548;9.926;2024-01-06T03:31:29;16.05;;;8.30;;
17953;SDS011;9102;53.548;9.926;2024-01-06T03:33:55;16.92;;;8.52;;
17953;SDS011;9102;53.548;9.926;2024-01-06T03:36:22;16.33;;;8.05;;
17953;SDS011;9102;53.548;9.926;2024-01-06T03:38:49;16.17;;;8.48;;
17953;SDS011;9102;53.548;9.926;2024-01-06T03:41:16;18.92;;;8.52;;
17953;SDS011;9102;53.548;9.926;2024-01-06T03:43:43;14.05;;;8.10;;
17953;SDS011;9102;53.548;9.926;2024-01-06T03:46:09;14.50;;;7.78;;
17953;SDS011;9102;53.548;9.926;2024-01-06T03:48:38;15.90;;;7.68;;
17953;SDS011;9102;53.548;9.926;2024-01-06T03:51:05;14.48;;;7.60;;
17953;SDS011;9102;53.548;9.926;2024-01-06T03:53:33;16.58;;;8.07;;
17953;SDS011;9102;53.548;9.926;2024-01-06T03:56:00;15.32;;;8.25;;
17953;SDS011;9102;53.548;9.926;2024-01-06T03:58:27;16.98;;;9.00;;
17953;SDS011;9102;53.548;9.926;2024-01-06T04:00:53;13.65;;;7.63;;
17953;SDS011;9102;53.548;9.926;2024-01-06T04:03:20;16.92;;;9.05;;
17953;SDS011;9102;53.548;9.926;2024-01-06T04:05:48;15.15;;;7.93;;
17953;SDS011;9102;53.548;9.926;2024-01-06T04:08:15;16.40;;;8.75;;
17953;SDS011;9102;53.548;9.926;2024-01-06T04:10:43;14.60;;;7.75;;
17953;SDS011;9102;53.548;9.926;2024-01-06T04:13:10;16.48;;;7.95;;
17953;SDS011;9102;53.548;9.926;2024-01-06T04:15:37;14.75;;;8.32;;
17953;SDS011;9102;53.548;9.926;2024-01-06T04:18:04;13.18;;;7.53;;
17953;SDS011;9102;53.548;9.926;2024-01-06T04:20:32;16.45;;;8.38;;
17953;SDS011;9102;53.548;9.926;2024-01-06T04:23:00;15.52;;;7.95;;
17953;SDS011;9102;53.548;9.926;2024-01-06T04:25:27;16.75;;;8.15;;
17953;SDS011;9102;53.548;9.926;2024-01-06T04:27:54;15.68;;;8.52;;
17953;SDS011;9102;53.548;9.926;2024-01-06T04:30:20;14.57;;;7.70;;
17953;SDS011;9102;53.548;9.926;2024-01-06T04:32:47;16.80;;;7.93;;
17953;SDS011;9102;53.548;9.926;2024-01-06T04:35:14;16.85;;;8.32;;
17953;SDS011;9102;53.548;9.926;2024-01-06T04:37:42;14.10;;;7.05;;
17953;SDS011;9102;53.548;9.926;2024-01-06T04:40:11;15.45;;;7.93;;
17953;SDS011;9102;53.548;9.926;2024-01-06T04:42:38;14.88;;;8.02;;
17953;SDS011;9102;53.548;9.926;2024-01-06T04:45:05;13.70;;;7.20;;
17953;SDS011;9102;53.548;9.926;2024-01-06T04:47:33;14.43;;;7.68;;
17953;SDS011;9102;53.548;9.926;2024-01-06T04:50:00;17.52;;;9.15;;
17953;SDS011;9102;53.548;9.926;2024-01-06T04:52:27;14.60;;;7.55;;
17953;SDS011;9102;53.548;9.926;2024-01-06T04:54:54;15.02;;;7.80;;
17953;SDS011;9102;53.548;9.926;2024-01-06T04:57:23;14.65;;;7.20;;
17953;SDS011;9102;53.548;9.926;2024-01-06T04:59:49;13.40;;;7.47;;
17953;SDS011;9102;53.548;9.926;2024-01-06T05:02:16;12.98;;;7.45;;
17953;SDS011;9102;53.548;9.926;2024-01-06T05:04:43;14.30;;;7.40;;
17953;SDS011;9102;53.548;9.926;2024-01-06T05:07:10;14.63;;;7.97;;
17953;SDS011;9102;53.548;9.926;2024-01-06T05:09:37;14.02;;;7.78;;
17953;SDS011;9102;53.548;9.926;2024-01-06T05:12:04;17.65;;;8.20;;
17953;SDS011;9102;53.548;9.926;2024-01-06T05:14:32;15.45;;;7.80;;
17953;SDS011;9102;53.548;9.926;2024-01-06T05:16:59;19.13;;;8.25;;
17953;SDS011;9102;53.548;9.926;2024-01-06T05:19:26;16.05;;;8.35;;
17953;SDS011;9102;53.548;9.926;2024-01-06T05:21:53;14.75;;;8.18;;
17953;SDS011;9102;53.548;9.926;2024-01-06T05:24:20;17.92;;;8.65;;
17953;SDS011;9102;53.548;9.926;2024-01-06T05:26:47;13.93;;;7.43;;
17953;SDS011;9102;53.548;9.926;2024-01-06T05:29:13;17.85;;;8.20;;
17953;SDS011;9102;53.548;9.926;2024-01-06T05:31:41;16.90;;;8.27;;
17953;SDS011;9102;53.548;9.926;2024-01-06T05:34:08;17.25;;;8.85;;
17953;SDS011;9102;53.548;9.926;2024-01-06T05:36:35;16.13;;;8.68;;
17953;SDS011;9102;53.548;9.926;2024-01-06T05:39:02;17.63;;;8.98;;
17953;SDS011;9102;53.548;9.926;2024-01-06T05:41:29;16.80;;;9.18;;
17953;SDS011;9102;53.548;9.926;2024-01-06T05:43:56;15.80;;;8.20;;
17953;SDS011;9102;53.548;9.926;2024-01-06T05:46:23;18.75;;;8.85;;
17953;SDS011;9102;53.548;9.926;2024-01-06T05:48:52;21.33;;;9.75;;
17953;SDS011;9102;53.548;9.926;2024-01-06T05:51:21;26.20;;;9.60;;
17953;SDS011;9102;53.548;9.926;2024-01-06T05:53:47;15.05;;;8.68;;
17953;SDS011;9102;53.548;9.926;2024-01-06T05:56:21;18.00;;;9.20;;
17953;SDS011;9102;53.548;9.926;2024-01-06T05:58:49;21.88;;;9.23;;
17953;SDS011;9102;53.548;9.926;2024-01-06T06:01:16;19.17;;;9.27;;
17953;SDS011;9102;53.548;9.926;2024-01-06T06:03:42;18.02;;;9.30;;
17953;SDS011;9102;53.548;9.926;2024-01-06T06:06:11;19.52;;;9.20;;
17953;SDS011;9102;53.548;9.926;2024-01-06T06:08:37;17.13;;;8.90;;
17953;SDS011;9102;53.548;9.926;2024-01-06T06:11:05;19.35;;;9.52;;
17953;SDS011;9102;53.548;9.926;2024-01-06T06:13:36;20.15;;;9.95;;
17953;SDS011;9102;53.548;9.926;2024-01-06T06:16:03;21.55;;;10.05;;
17953;SDS011;9102;53.548;9.926;2024-01-06T06:18:30;19.83;;;9.18;;
17953;SDS011;9102;53.548;9.926;2024-01-06T06:20:58;19.80;;;9.07;;
17953;SDS011;9102;53.548;9.926;2024-01-06T06:23:26;20.65;;;10.10;;
17953;SDS011;9102;53.548;9.926;2024-01-06T06:25:53;18.13;;;9.75;;
17953;SDS011;9102;53.548;9.926;2024-01-06T06:28:20;17.05;;;9.55;;
17953;SDS011;9102;53.548;9.926;2024-01-06T06:30:47;19.52;;;9.63;;
17953;SDS011;9102;53.548;9.926;2024-01-06T06:33:14;19.73;;;9.80;;
17953;SDS011;9102;53.548;9.926;2024-01-06T06:35:41;19.50;;;9.80;;
17953;SDS011;9102;53.548;9.926;2024-01-06T06:38:07;20.23;;;9.45;;
17953;SDS011;9102;53.548;9.926;2024-01-06T06:40:35;21.17;;;9.90;;
17953;SDS011;9102;53.548;9.926;2024-01-06T06:43:02;21.92;;;10.45;;
17953;SDS011;9102;53.548;9.926;2024-01-06T06:45:29;21.42;;;10.20;;
17953;SDS011;9102;53.548;9.926;2024-01-06T06:47:56;21.40;;;9.48;;
17953;SDS011;9102;53.548;9.926;2024-01-06T06:50:23;19.67;;;9.75;;
17953;SDS011;9102;53.548;9.926;2024-01-06T06:52:50;21.33;;;10.38;;
17953;SDS011;9102;53.548;9.926;2024-01-06T06:55:17;19.90;;;9.82;;
17953;SDS011;9102;53.548;9.926;2024-01-06T06:57:46;21.02;;;10.63;;
17953;SDS011;9102;53.548;9.926;2024-01-06T07:00:12;19.35;;;10.18;;
17953;SDS011;9102;53.548;9.926;2024-01-06T07:02:41;22.85;;;10.57;;
17953;SDS011;9102;53.548;9.926;2024-01-06T07:05:08;20.00;;;10.32;;
17953;SDS011;9102;53.548;9.926;2024-01-06T07:07:34;20.60;;;10.98;;
17953;SDS011;9102;53.548;9.926;2024-01-06T07:10:03;24.52;;;10.07;;
17953;SDS011;9102;53.548;9.926;2024-01-06T07:12:30;17.08;;;8.77;;
17953;SDS011;9102;53.548;9.926;2024-01-06T07:14:58;22.50;;;10.60;;
17953;SDS011;9102;53.548;9.926;2024-01-06T07:17:25;21.70;;;10.20;;
17953;SDS011;9102;53.548;9.926;2024-01-06T07:19:52;21.58;;;10.27;;
17953;SDS011;9102;53.548;9.926;2024-01-06T07:22:19;22.92;;;10.57;;
17953;SDS011;9102;53.548;9.926;2024-01-06T07:24:45;21.10;;;10.48;;
17953;SDS011;9102;53.548;9.926;2024-01-06T07:27:12;22.50;;;11.25;;
17953;SDS011;9102;53.548;9.926;2024-01-06T07:29:40;27.50;;;11.60;;
17953;SDS011;9102;53.548;9.926;2024-01-06T07:32:08;21.33;;;10.38;;
17953;SDS011;9102;53.548;9.926;2024-01-06T07:34:35;23.02;;;10.18;;
17953;SDS011;9102;53.548;9.926;2024-01-06T07:37:01;19.63;;;10.02;;
17953;SDS011;9102;53.548;9.926;2024-01-06T07:39:28;20.42;;;10.10;;
17953;SDS011;9102;53.548;9.926;2024-01-06T07:41:55;18.48;;;9.13;;
17953;SDS011;9102;53.548;9.926;2024-01-06T07:44:22;18.92;;;9.57;;
17953;SDS011;9102;53.548;9.926;2024-01-06T07:46:49;21.20;;;9.75;;
17953;SDS011;9102;53.548;9.926;2024-01-06T07:49:18;21.25;;;10.50;;
17953;SDS011;9102;53.548;9.926;2024-01-06T07:51:45;19.42;;;10.13;;
17953;SDS011;9102;53.548;9.926;2024-01-06T07:54:12;22.35;;;9.85;;
17953;SDS011;9102;53.548;9.926;2024-01-06T07:56:39;21.80;;;9.38;;
17953;SDS011;9102;53.548;9.926;2024-01-06T07:59:06;21.38;;;10.13;;
17953;SDS011;9102;53.548;9.926;2024-01-06T08:01:33;20.08;;;9.93;;
17953;SDS011;9102;53.548;9.926;2024-01-06T08:04:00;18.23;;;9.50;;
17953;SDS011;9102;53.548;9.926;2024-01-06T08:06:29;17.92;;;9.40;;
17953;SDS011;9102;53.548;9.926;2024-01-06T08:08:56;18.67;;;9.38;;
17953;SDS011;9102;53.548;9.926;2024-01-06T08:11:23;19.85;;;9.65;;
17953;SDS011;9102;53.548;9.926;2024-01-06T08:13:50;18.42;;;9.57;;
17953;SDS011;9102;53.548;9.926;2024-01-06T08:16:16;16.42;;;8.55;;
17953;SDS011;9102;53.548;9.926;2024-01-06T08:18:44;17.80;;;9.30;;
17953;SDS011;9102;53.548;9.926;2024-01-06T08:21:11;18.52;;;9.23;;
17953;SDS011;9102;53.548;9.926;2024-01-06T08:23:39;16.60;;;8.57;;
17953;SDS011;9102;53.548;9.926;2024-01-06T08:26:06;18.58;;;9.40;;
17953;SDS011;9102;53.548;9.926;2024-01-06T08:28:33;15.93;;;8.38;;
17953;SDS011;9102;53.548;9.926;2024-01-06T08:30:59;18.45;;;9.18;;
17953;SDS011;9102;53.548;9.926;2024-01-06T08:33:26;20.88;;;9.40;;
17953;SDS011;9102;53.548;9.926;2024-01-06T08:35:53;20.20;;;9.48;;
17953;SDS011;9102;53.548;9.926;2024-01-06T08:38:20;18.50;;;9.45;;
17953;SDS011;9102;53.548;9.926;2024-01-06T08:40:49;19.20;;;8.88;;
17953;SDS011;9102;53.548;9.926;2024-01-06T08:43:19;18.05;;;9.00;;
17953;SDS011;9102;53.548;9.926;2024-01-06T08:45:46;15.73;;;8.85;;
17953;SDS011;9102;53.548;9.926;2024-01-06T08:48:15;16.88;;;8.55;;
17953;SDS011;9102;53.548;9.926;2024-01-06T08:50:43;16.95;;;8.95;;
17953;SDS011;9102;53.548;9.926;2024-01-06T08:53:11;16.53;;;8.43;;
17953;SDS011;9102;53.548;9.926;2024-01-06T08:55:38;18.17;;;8.88;;
17953;SDS011;9102;53.548;9.926;2024-01-06T08:58:06;16.17;;;8.93;;
17953;SDS011;9102;53.548;9.926;2024-01-06T09:00:33;20.00;;;9.00;;
17953;SDS011;9102;53.548;9.926;2024-01-06T09:03:00;17.08;;;8.82;;
17953;SDS011;9102;53.548;9.926;2024-01-06T09:05:27;17.30;;;8.45;;
17953;SDS011;9102;53.548;9.926;2024-01-06T09:07:53;18.67;;;8.77;;
17953;SDS011;9102;53.548;9.926;2024-01-06T09:10:20;19.83;;;9.15;;
17953;SDS011;9102;53.548;9.926;2024-01-06T09:12:47;17.77;;;8.55;;
17953;SDS011;9102;53.548;9.926;2024-01-06T09:15:15;18.92;;;9.27;;
17953;SDS011;9102;53.548;9.926;2024-01-06T09:17:42;21.33;;;9.00;;
17953;SDS011;9102;53.548;9.926;2024-01-06T09:20:09;18.58;;;8.68;;
17953;SDS011;9102;53.548;9.926;2024-01-06T09:22:36;21.15;;;9.35;;
17953;SDS011;9102;53.548;9.926;2024-01-06T09:25:04;16.95;;;8.68;;
17953;SDS011;9102;53.548;9.926;2024-01-06T09:27:31;18.63;;;9.05;;
17953;SDS011;9102;53.548;9.926;2024-01-06T09:29:58;17.75;;;9.45;;
17953;SDS011;9102;53.548;9.926;2024-01-06T09:32:26;16.40;;;9.02;;
17953;SDS011;9102;53.548;9.926;2024-01-06T09:34:53;16.98;;;9.00;;
17953;SDS011;9102;53.548;9.926;2024-01-06T09:37:20;17.75;;;8.43;;
17953;SDS011;9102;53.548;9.926;2024-01-06T09:39:47;18.48;;;8.82;;
17953;SDS011;9102;53.548;9.926;2024-01-06T09:42:14;18.73;;;8.70;;
17953;SDS011;9102;53.548;9.926;2024-01-06T09:44:41;23.67;;;10.25;;
17953;SDS011;9102;53.548;9.926;2024-01-06T09:47:08;36.83;;;15.93;;
17953;SDS011;9102;53.548;9.926;2024-01-06T09:49:39;21.13;;;9.63;;
17953;SDS011;9102;53.548;9.926;2024-01-06T09:52:14;18.73;;;9.05;;
17953;SDS011;9102;53.548;9.926;2024-01-06T09:54:46;16.77;;;9.02;;
17953;SDS011;9102;53.548;9.926;2024-01-06T09:57:17;19.70;;;10.75;;
17953;SDS011;9102;53.548;9.926;2024-01-06T09:59:44;16.20;;;8.63;;
17953;SDS011;9102;53.548;9.926;2024-01-06T10:02:12;22.98;;;9.95;;
17953;SDS011;9102;53.548;9.926;2024-01-06T10:04:42;17.77;;;8.25;;
17953;SDS011;9102;53.548;9.926;2024-01-06T10:07:09;18.80;;;8.75;;
17953;SDS011;9102;53.548;9.926;2024-01-06T10:09:38;20.35;;;9.40;;
17953;SDS011;9102;53.548;9.926;2024-01-06T10:12:06;17.10;;;8.75;;
17953;SDS011;9102;53.548;9.926;2024-01-06T10:14:33;22.63;;;9.85;;
17953;SDS011;9102;53.548;9.926;2024-01-06T10:17:00;18.05;;;9.45;;
17953;SDS011;9102;53.548;9.926;2024-01-06T10:19:27;21.45;;;9.05;;
17953;SDS011;9102;53.548;9.926;2024-01-06T10:21:55;20.35;;;10.15;;
17953;SDS011;9102;53.548;9.926;2024-01-06T10:24:25;18.20;;;8.82;;
17953;SDS011;9102;53.548;9.926;2024-01-06T10:26:52;18.02;;;8.95;;
17953;SDS011;9102;53.548;9.926;2024-01-06T10:29:19;18.55;;;9.02;;
17953;SDS011;9102;53.548;9.926;2024-01-06T10:31:46;17.00;;;8.95;;
17953;SDS011;9102;53.548;9.926;2024-01-06T10:34:14;19.35;;;9.23;;
17953;SDS011;9102;53.548;9.926;2024-01-06T10:36:41;18.70;;;8.77;;
17953;SDS011;9102;53.548;9.926;2024-01-06T10:39:09;20.13;;;8.93;;
17953;SDS011;9102;53.548;9.926;2024-01-06T10:41:36;21.33;;;9.25;;
17953;SDS011;9102;53.548;9.926;2024-01-06T10:44:07;15.02;;;8.35;;
17953;SDS011;9102;53.548;9.926;2024-01-06T10:46:35;17.70;;;9.85;;
17953;SDS011;9102;53.548;9.926;2024-01-06T10:49:05;17.17;;;8.77;;
17953;SDS011;9102;53.548;9.926;2024-01-06T10:51:34;20.80;;;9.15;;
17953;SDS011;9102;53.548;9.926;2024-01-06T10:54:02;20.73;;;9.65;;
17953;SDS011;9102;53.548;9.926;2024-01-06T10:56:30;18.98;;;9.18;;
17953;SDS011;9102;53.548;9.926;2024-01-06T10:59:02;16.60;;;8.30;;
17953;SDS011;9102;53.548;9.926;2024-01-06T11:01:30;17.25;;;9.07;;
17953;SDS011;9102;53.548;9.926;2024-01-06T11:03:58;14.60;;;8.30;;
17953;SDS011;9102;53.548;9.926;2024-01-06T11:06:26;19.10;;;9.07;;
17953;SDS011;9102;53.548;9.926;2024-01-06T11:08:56;18.00;;;9.02;;
17953;SDS011;9102;53.548;9.926;2024-01-06T11:11:26;17.00;;;8.25;;
17953;SDS011;9102;53.548;9.926;2024-01-06T11:13:56;17.45;;;8.30;;
17953;SDS011;9102;53.548;9.926;2024-01-06T11:16:44;14.25;;;8.40;;
17953;SDS011;9102;53.548;9.926;2024-01-06T11:22:26;13.75;;;7.57;;
17953;SDS011;9102;53.548;9.926;2024-01-06T11:24:56;19.60;;;7.88;;
17953;SDS011;9102;53.548;9.926;2024-01-06T11:27:30;13.32;;;7.53;;
17953;SDS011;9102;53.548;9.926;2024-01-06T11:29:59;19.67;;;7.60;;
17953;SDS011;9102;53.548;9.926;2024-01-06T11:32:30;17.73;;;7.43;;
17953;SDS011;9102;53.548;9.926;2024-01-06T11:35:09;17.23;;;7.55;;
17953;SDS011;9102;53.548;9.926;2024-01-06T11:37:50;11.82;;;6.63;;
17953;SDS011;9102;53.548;9.926;2024-01-06T11:40:24;12.23;;;6.80;;
17953;SDS011;9102;53.548;9.926;2024-01-06T11:42:59;13.50;;;6.65;;
17953;SDS011;9102;53.548;9.926;2024-01-06T11:45:29;16.42;;;7.63;;
17953;SDS011;9102;53.548;9.926;2024-01-06T11:47:57;15.40;;;7.32;;
17953;SDS011;9102;53.548;9.926;2024-01-06T11:50:25;16.40;;;7.18;;
17953;SDS011;9102;53.548;9.926;2024-01-06T11:52:52;14.07;;;7.07;;
17953;SDS011;9102;53.548;9.926;2024-01-06T11:55:19;13.93;;;6.25;;
17953;SDS011;9102;53.548;9.926;2024-01-06T11:57:46;15.43;;;7.03;;
17953;SDS011;9102;53.548;9.926;2024-01-06T12:00:14;14.52;;;6.78;;
17953;SDS011;9102;53.548;9.926;2024-01-06T12:02:43;14.35;;;7.05;;
17953;SDS011;9102;53.548;9.926;2024-01-06T12:05:13;17.92;;;8.10;;
17953;SDS011;9102;53.548;9.926;2024-01-06T12:07:41;12.82;;;6.70;;
17953;SDS011;9102;53.548;9.926;2024-01-06T12:10:08;12.68;;;6.35;;
17953;SDS011;9102;53.548;9.926;2024-01-06T12:12:36;12.68;;;6.65;;
17953;SDS011;9102;53.548;9.926;2024-01-06T12:15:03;13.85;;;7.07;;
17953;SDS011;9102;53.548;9.926;2024-01-06T12:17:34;10.93;;;6.15;;
17953;SDS011;9102;53.548;9.926;2024-01-06T12:20:03;12.32;;;6.20;;
17953;SDS011;9102;53.548;9.926;2024-01-06T12:22:30;11.27;;;6.10;;
17953;SDS011;9102;53.548;9.926;2024-01-06T12:24:58;13.63;;;6.60;;
17953;SDS011;9102;53.548;9.926;2024-01-06T12:27:25;12.02;;;6.75;;
17953;SDS011;9102;53.548;9.926;2024-01-06T12:29:52;12.52;;;6.68;;
17953;SDS011;9102;53.548;9.926;2024-01-06T12:32:19;14.07;;;6.90;;
17953;SDS011;9102;53.548;9.926;2024-01-06T12:34:46;13.20;;;6.45;;
17953;SDS011;9102;53.548;9.926;2024-01-06T12:37:15;14.38;;;6.40;;
17953;SDS011;9102;53.548;9.926;2024-01-06T12:39:42;10.07;;;5.63;;
17953;SDS011;9102;53.548;9.926;2024-01-06T12:42:10;12.13;;;6.10;;
17953;SDS011;9102;53.548;9.926;2024-01-06T12:44:37;11.23;;;6.05;;
17953;SDS011;9102;53.548;9.926;2024-01-06T12:47:04;14.65;;;6.03;;
17953;SDS011;9102;53.548;9.926;2024-01-06T12:49:31;11.40;;;5.65;;
17953;SDS011;9102;53.548;9.926;2024-01-06T12:51:58;8.75;;;5.00;;
17953;SDS011;9102;53.548;9.926;2024-01-06T12:54:27;10.35;;;5.93;;
17953;SDS011;9102;53.548;9.926;2024-01-06T12:56:56;11.65;;;5.32;;
17953;SDS011;9102;53.548;9.926;2024-01-06T12:59:23;14.43;;;6.28;;
17953;SDS011;9102;53.548;9.926;2024-01-06T13:01:49;11.52;;;5.93;;
17953;SDS011;9102;53.548;9.926;2024-01-06T13:04:16;11.43;;;5.65;;
17953;SDS011;9102;53.548;9.926;2024-01-06T13:06:43;10.88;;;5.90;;
17953;SDS011;9102;53.548;9.926;2024-01-06T13:09:10;10.20;;;5.72;;
17953;SDS011;9102;53.548;9.926;2024-01-06T13:11:42;12.73;;;5.88;;
17953;SDS011;9102;53.548;9.926;2024-01-06T13:14:11;11.95;;;6.45;;
17953;SDS011;9102;53.548;9.926;2024-01-06T13:16:38;12.00;;;6.03;;
17953;SDS011;9102;53.548;9.926;2024-01-06T13:19:04;12.38;;;5.63;;
17953;SDS011;9102;53.548;9.926;2024-01-06T13:21:31;9.65;;;5.65;;
17953;SDS011;9102;53.548;9.926;2024-01-06T13:23:59;13.63;;;6.10;;
17953;SDS011;9102;53.548;9.926;2024-01-06T13:26:27;10.70;;;5.38;;
17953;SDS011;9102;53.548;9.926;2024-01-06T13:28:56;10.18;;;5.78;;
17953;SDS011;9102;53.548;9.926;2024-01-06T13:31:23;11.00;;;5.32;;
17953;SDS011;9102;53.548;9.926;2024-01-06T13:33:50;12.75;;;5.60;;
17953;SDS011;9102;53.548;9.926;2024-01-06T13:36:17;10.98;;;5.40;;
17953;SDS011;9102;53.548;9.926;2024-01-06T13:38:44;10.60;;;5.32;;
17953;SDS011;9102;53.548;9.926;2024-01-06T13:41:10;9.57;;;4.90;;
17953;SDS011;9102;53.548;9.926;2024-01-06T13:43:37;12.20;;;5.95;;
17953;SDS011;9102;53.548;9.926;2024-01-06T13:46:05;10.32;;;5.53;;
17953;SDS011;9102;53.548;9.926;2024-01-06T13:48:32;10.82;;;5.45;;
17953;SDS011;9102;53.548;9.926;2024-01-06T13:50:59;11.60;;;5.32;;
17953;SDS011;9102;53.548;9.926;2024-01-06T13:53:26;11.18;;;5.25;;
17953;SDS011;9102;53.548;9.926;2024-01-06T13:55:53;10.23;;;5.55;;
17953;SDS011;9102;53.548;9.926;2024-01-06T13:58:20;10.40;;;5.13;;
17953;SDS011;9102;53.548;9.926;2024-01-06T14:00:47;8.52;;;5.00;;
17953;SDS011;9102;53.548;9.926;2024-01-06T14:03:15;13.98;;;5.47;;
17953;SDS011;9102;53.548;9.926;2024-01-06T14:05:42;9.88;;;5.50;;
17953;SDS011;9102;53.548;9.926;2024-01-06T14:08:09;9.55;;;4.93;;
17953;SDS011;9102;53.548;9.926;2024-01-06T14:10:39;10.90;;;4.78;;
17953;SDS011;9102;53.548;9.926;2024-01-06T14:13:06;10.82;;;5.28;;
17953;SDS011;9102;53.548;9.926;2024-01-06T14:15:32;11.23;;;4.97;;
17953;SDS011;9102;53.548;9.926;2024-01-06T14:18:00;9.88;;;5.38;;
17953;SDS011;9102;53.548;9.926;2024-01-06T14:20:30;9.88;;;4.85;;
17953;SDS011;9102;53.548;9.926;2024-01-06T14:22:59;12.57;;;5.68;;
17953;SDS011;9102;53.548;9.926;2024-01-06T14:25:26;10.10;;;5.55;;
17953;SDS011;9102;53.548;9.926;2024-01-06T14:27:53;12.18;;;5.57;;
17953;SDS011;9102;53.548;9.926;2024-01-06T14:30:20;10.00;;;5.22;;
17953;SDS011;9102;53.548;9.926;2024-01-06T14:32:46;13.20;;;5.53;;
17953;SDS011;9102;53.548;9.926;2024-01-06T14:35:13;11.55;;;5.22;;
17953;SDS011;9102;53.548;9.926;2024-01-06T14:37:42;8.77;;;4.75;;
17953;SDS011;9102;53.548;9.926;2024-01-06T14:40:11;11.68;;;5.15;;
17953;SDS011;9102;53.548;9.926;2024-01-06T14:42:38;14.82;;;5.47;;
17953;SDS011;9102;53.548;9.926;2024-01-06T14:45:05;11.80;;;5.50;;
17953;SDS011;9102;53.548;9.926;2024-01-06T14:47:33;12.35;;;5.72;;
17953;SDS011;9102;53.548;9.926;2024-01-06T14:50:00;9.60;;;4.82;;
17953;SDS011;9102;53.548;9.926;2024-01-06T14:52:27;13.80;;;6.63;;